createdAt,value
2022-11-01T00:01:27.276Z,97998.00
2022-11-01T00:06:30.060Z,98002.00
2022-11-01T00:11:32.848Z,97988.00
2022-11-01T00:16:35.667Z,97997.00
2022-11-01T00:21:38.655Z,97988.00
2022-11-01T00:26:41.461Z,97977.00
2022-11-01T00:31:44.274Z,97987.00
2022-11-01T00:36:47.074Z,97981.00
2022-11-01T00:41:49.806Z,97979.00
2022-11-01T00:46:53.504Z,97981.00
2022-11-01T00:51:56.234Z,97972.00
2022-11-01T00:56:58.924Z,97981.00
2022-11-01T01:02:01.756Z,97967.00
2022-11-01T01:07:04.568Z,97973.00
2022-11-01T01:12:07.437Z,97970.00
2022-11-01T01:17:10.221Z,97968.00
2022-11-01T01:22:12.973Z,97959.00
2022-11-01T01:27:17.272Z,97970.00
2022-11-01T01:32:23.681Z,97973.00
2022-11-01T01:37:26.358Z,97971.00
2022-11-01T01:42:36.578Z,97974.00
2022-11-01T01:47:42.071Z,97974.00
2022-11-01T01:52:52.944Z,97945.00
2022-11-01T01:57:57.495Z,97946.00
2022-11-01T02:03:00.470Z,97949.00
2022-11-01T02:08:05.158Z,97940.00
2022-11-01T02:13:15.396Z,97944.00
2022-11-01T02:18:31.735Z,97937.00
2022-11-01T02:23:48.744Z,97940.00
2022-11-01T02:29:28.751Z,97932.00
2022-11-01T02:34:43.890Z,97930.00
2022-11-01T02:39:52.727Z,97923.00
2022-11-01T02:45:29.120Z,97921.00
2022-11-01T02:50:41.706Z,97926.00
2022-11-01T03:00:52.598Z,97927.00
2022-11-01T03:06:01.549Z,97936.00
2022-11-01T03:11:12.104Z,97959.00
2022-11-01T03:16:21.039Z,97961.00
2022-11-01T03:21:26.841Z,97965.00
2022-11-01T03:26:31.236Z,97972.00
2022-11-01T03:31:35.564Z,97980.00
2022-11-01T03:36:42.931Z,97989.00
2022-11-01T03:41:49.592Z,97992.00
2022-11-01T03:46:55.027Z,97986.00
2022-11-01T03:51:57.755Z,97993.00
2022-11-01T03:57:00.450Z,98000.00
2022-11-01T04:02:03.422Z,97993.00
2022-11-01T04:07:06.212Z,97995.00
2022-11-01T04:12:08.973Z,98006.00
2022-11-01T04:17:30.507Z,97984.00
2022-11-01T04:22:39.378Z,97981.00
2022-11-01T04:27:42.141Z,97977.00
2022-11-01T04:32:45.276Z,97969.00
2022-11-01T04:37:48.777Z,97984.00
2022-11-01T04:42:54.713Z,97976.00
2022-11-01T04:48:17.093Z,97977.00
2022-11-01T04:53:19.974Z,97971.00
2022-11-01T04:58:22.826Z,97973.00
2022-11-01T05:03:25.666Z,97984.00
2022-11-01T05:08:28.783Z,97974.00
2022-11-01T05:13:31.597Z,97970.00
2022-11-01T05:18:34.319Z,97963.00
2022-11-01T05:23:37.044Z,97960.00
2022-11-01T05:28:39.806Z,97967.00
2022-11-01T05:33:42.615Z,97977.00
2022-11-01T05:38:45.417Z,97978.00
2022-11-01T05:43:48.162Z,97981.00
2022-11-01T05:48:50.850Z,97978.00
2022-11-01T05:53:53.566Z,97992.00
2022-11-01T05:58:59.103Z,98000.00
2022-11-01T06:04:02.206Z,98006.00
2022-11-01T06:09:04.967Z,98003.00
2022-11-01T06:14:10.466Z,98015.00
2022-11-01T06:19:13.314Z,98017.00
2022-11-01T06:24:16.178Z,98029.00
2022-11-01T06:29:18.941Z,98028.00
2022-11-01T06:34:21.755Z,98042.00
2022-11-01T06:39:24.548Z,98051.00
2022-11-01T06:44:27.261Z,98057.00
2022-11-01T06:49:30.650Z,98065.00
2022-11-01T06:54:33.835Z,98074.00
2022-11-01T06:59:36.645Z,98078.00
2022-11-01T07:04:39.386Z,98078.00
2022-11-01T07:09:42.125Z,98082.00
2022-11-01T07:14:44.967Z,98080.00
2022-11-01T07:19:47.735Z,98086.00
2022-11-01T07:24:50.458Z,98094.00
2022-11-01T07:29:53.189Z,98095.00
2022-11-01T07:34:55.950Z,98114.00
2022-11-01T07:39:58.773Z,98111.00
2022-11-01T07:45:01.540Z,98107.00
2022-11-01T07:50:05.738Z,98107.00
2022-11-01T07:55:09.213Z,98128.00
2022-11-01T08:00:12.486Z,98148.00
2022-11-01T08:05:15.311Z,98149.00
2022-11-01T08:10:18.195Z,98143.00
2022-11-01T08:15:21.059Z,98149.00
2022-11-01T08:20:24.782Z,98162.00
2022-11-01T08:25:27.770Z,98156.00
2022-11-01T08:30:41.250Z,98160.00
2022-11-01T08:35:50.419Z,98161.00
2022-11-01T08:40:53.965Z,98165.00
2022-11-01T08:46:00.167Z,98164.00
2022-11-01T08:51:04.043Z,98176.00
2022-11-01T08:56:07.103Z,98166.00
2022-11-01T09:01:12.184Z,98173.00
2022-11-01T09:06:15.486Z,98189.00
2022-11-01T09:11:18.312Z,98192.00
2022-11-01T09:16:21.052Z,98203.00
2022-11-01T09:21:29.047Z,98202.00
2022-11-01T09:26:34.128Z,98201.00
2022-11-01T09:31:37.043Z,98215.00
2022-11-01T09:36:39.833Z,98211.00
2022-11-01T09:41:48.085Z,98216.00
2022-11-01T09:46:58.005Z,98240.00
2022-11-01T09:52:06.065Z,98236.00
2022-11-01T09:57:17.732Z,98233.00
2022-11-01T10:02:42.265Z,98248.00
2022-11-01T10:08:07.819Z,98250.00
2022-11-01T10:13:32.488Z,98260.00
2022-11-01T10:18:46.211Z,98254.00
2022-11-01T10:23:54.616Z,98254.00
2022-11-01T10:29:07.423Z,98258.00
2022-11-01T10:34:25.056Z,98258.00
2022-11-01T10:39:56.201Z,98273.00
2022-11-01T10:45:07.425Z,98269.00
2022-11-01T10:50:18.667Z,98237.00
2022-11-01T10:55:45.168Z,98238.00
2022-11-01T11:00:48.597Z,98240.00
2022-11-01T11:05:54.426Z,98245.00
2022-11-01T11:11:04.722Z,98247.00
2022-11-01T11:16:21.945Z,98251.00
2022-11-01T11:21:28.201Z,98259.00
2022-11-01T11:26:39.419Z,98257.00
2022-11-01T11:31:42.819Z,98265.00
2022-11-01T11:36:49.947Z,98263.00
2022-11-01T11:41:52.819Z,98257.00
2022-11-01T11:46:58.635Z,98249.00
2022-11-01T11:52:01.434Z,98254.00
2022-11-01T11:57:30.164Z,98257.00
2022-11-01T12:02:41.648Z,98254.00
2022-11-01T12:08:05.199Z,98263.00
2022-11-01T12:13:33.178Z,98258.00
2022-11-01T12:18:45.176Z,98271.00
2022-11-01T12:23:52.587Z,98264.00
2022-11-01T12:29:05.007Z,98265.00
2022-11-01T12:34:28.162Z,98268.00
2022-11-01T12:40:08.252Z,98271.00
2022-11-01T12:45:36.683Z,98278.00
2022-11-01T12:50:50.422Z,98283.00
2022-11-01T12:55:53.560Z,98292.00
2022-11-01T13:01:22.307Z,98296.00
2022-11-01T13:06:31.271Z,98312.00
2022-11-01T13:11:55.861Z,98308.00
2022-11-01T13:17:09.087Z,98312.00
2022-11-01T13:22:40.682Z,98308.00
2022-11-01T13:28:16.159Z,98308.00
2022-11-01T13:33:41.721Z,98308.00
2022-11-01T13:39:17.603Z,98315.00
2022-11-01T13:44:28.658Z,98322.00
2022-11-01T13:49:42.205Z,98317.00
2022-11-01T13:54:55.685Z,98330.00
2022-11-01T14:00:01.774Z,98332.00
2022-11-01T14:05:14.311Z,98330.00
2022-11-01T14:10:20.109Z,98335.00
2022-11-01T14:15:25.012Z,98342.00
2022-11-01T14:20:33.671Z,98334.00
2022-11-01T14:25:36.520Z,98329.00
2022-11-01T14:30:42.806Z,98325.00
2022-11-01T14:35:52.863Z,98327.00
2022-11-01T14:40:59.167Z,98332.00
2022-11-01T14:46:05.162Z,98335.00
2022-11-01T14:51:20.219Z,98329.00
2022-11-01T14:56:37.017Z,98328.00
2022-11-01T15:01:50.312Z,98331.00
2022-11-01T15:06:53.866Z,98332.00
2022-11-01T15:12:08.547Z,98325.00
2022-11-01T15:17:33.549Z,98332.00
2022-11-01T15:22:36.422Z,98332.00
2022-11-01T15:27:42.115Z,98334.00
2022-11-01T15:32:44.939Z,98335.00
2022-11-01T15:37:51.025Z,98341.00
2022-11-01T15:43:01.930Z,98355.00
2022-11-01T15:48:12.735Z,98360.00
2022-11-01T15:53:21.552Z,98368.00
2022-11-01T16:04:10.160Z,98357.00
2022-11-01T16:09:26.735Z,98350.00
2022-11-01T16:14:38.330Z,98367.00
2022-11-01T16:19:45.394Z,98359.00
2022-11-01T16:24:48.167Z,98368.00
2022-11-01T16:29:53.006Z,98371.00
2022-11-01T16:34:56.560Z,98376.00
2022-11-01T16:40:19.282Z,98381.00
2022-11-01T16:45:22.062Z,98384.00
2022-11-01T16:50:24.846Z,98388.00
2022-11-01T16:55:29.698Z,98393.00
2022-11-01T17:00:34.249Z,98399.00
2022-11-01T17:05:36.994Z,98391.00
2022-11-01T17:10:39.829Z,98414.00
2022-11-01T17:15:49.151Z,98413.00
2022-11-01T17:20:52.497Z,98421.00
2022-11-01T17:25:56.322Z,98420.00
2022-11-01T17:30:59.101Z,98418.00
2022-11-01T17:36:01.966Z,98424.00
2022-11-01T17:41:14.368Z,98423.00
2022-11-01T17:46:22.371Z,98417.00
2022-11-01T17:51:25.272Z,98418.00
2022-11-01T17:56:28.038Z,98418.00
2022-11-01T18:01:31.073Z,98427.00
2022-11-01T18:06:33.968Z,98427.00
2022-11-01T18:11:48.789Z,98439.00
2022-11-01T18:17:04.224Z,98439.00
2022-11-01T18:22:16.882Z,98431.00
2022-11-01T18:27:35.586Z,98434.00
2022-11-01T18:32:48.805Z,98437.00
2022-11-01T18:38:26.811Z,98446.00
2022-11-01T18:43:32.979Z,98447.00
2022-11-01T18:48:37.565Z,98449.00
2022-11-01T18:53:40.437Z,98455.00
2022-11-01T18:58:43.155Z,98465.00
2022-11-01T19:04:00.039Z,98470.00
2022-11-01T19:09:21.449Z,98469.00
2022-11-01T19:14:24.282Z,98477.00
2022-11-01T19:19:27.148Z,98469.00
2022-11-01T19:24:35.016Z,98475.00
2022-11-01T19:29:37.768Z,98483.00
2022-11-01T19:34:42.931Z,98477.00
2022-11-01T19:39:46.117Z,98480.00
2022-11-01T19:44:48.907Z,98474.00
2022-11-01T19:49:51.684Z,98476.00
2022-11-01T19:54:54.497Z,98488.00
2022-11-01T20:00:11.710Z,98477.00
2022-11-01T20:05:29.322Z,98482.00
2022-11-01T20:10:32.241Z,98485.00
2022-11-01T20:15:35.017Z,98492.00
2022-11-01T20:20:37.826Z,98485.00
2022-11-01T20:25:40.660Z,98494.00
2022-11-01T20:30:43.409Z,98488.00
2022-11-01T20:35:46.233Z,98491.00
2022-11-01T20:40:49.075Z,98485.00
2022-11-01T20:45:52.212Z,98498.00
2022-11-01T20:50:54.994Z,98493.00
2022-11-01T20:55:57.802Z,98478.00
2022-11-01T21:01:00.559Z,98478.00
2022-11-01T21:06:10.264Z,98481.00
2022-11-01T21:11:44.150Z,98479.00
2022-11-01T21:16:50.319Z,98473.00
2022-11-01T21:21:57.718Z,98484.00
2022-11-01T21:27:12.563Z,98491.00
2022-11-01T21:32:30.757Z,98483.00
2022-11-01T21:37:33.559Z,98494.00
2022-11-01T21:42:37.241Z,98492.00
2022-11-01T21:47:45.458Z,98488.00
2022-11-01T21:52:48.498Z,98488.00
2022-11-01T21:57:51.206Z,98487.00
2022-11-01T22:02:53.949Z,98481.00
2022-11-01T22:07:56.738Z,98484.00
2022-11-01T22:13:04.220Z,98486.00
2022-11-01T22:18:09.329Z,98484.00
2022-11-01T22:23:12.052Z,98485.00
2022-11-01T22:28:14.769Z,98475.00
2022-11-01T22:33:17.486Z,98481.00
2022-11-01T22:38:25.080Z,98490.00
2022-11-01T22:43:28.661Z,98495.00
2022-11-01T22:48:31.828Z,98488.00
2022-11-01T22:53:34.589Z,98487.00
2022-11-01T22:58:38.835Z,98500.00
2022-11-01T23:03:41.654Z,98486.00
2022-11-01T23:08:44.452Z,98492.00
2022-11-01T23:14:05.778Z,98490.00
2022-11-01T23:19:13.486Z,98498.00
2022-11-01T23:24:16.202Z,98482.00
2022-11-01T23:29:19.031Z,98490.00
2022-11-01T23:34:22.031Z,98496.00
2022-11-01T23:39:28.512Z,98486.00
2022-11-01T23:44:35.995Z,98499.00
2022-11-01T23:49:38.800Z,98489.00
2022-11-01T23:54:44.861Z,98498.00
2022-11-01T23:59:51.056Z,98501.00
